Time;durP1;ratioP1;P1;durP2;ratioP2;P2;SDS_P1;SDS_P2;PMS_P1;PMS_P2;Temp;Humidity;BMP_temperature;BMP_pressure;BME280_temperature;BME280_humidity;BME280_pressure;Samples;Min_cycle;Max_cycle;Signal;HPM_P1;HPM_P2
2022/08/31 00:05:57;;;;;;;8.00;5.72;;;;;;;16.65;78.52;93515.03;5075040;28;20108;-58
2022/08/31 00:08:23;;;;;;;7.53;5.30;;;;;;;16.69;78.46;93511.81;5072959;28;20509;-58
2022/08/31 00:10:48;;;;;;;5.65;4.65;;;;;;;16.82;77.61;93511.38;5073192;28;20078;-58
2022/08/31 00:13:14;;;;;;;5.72;5.20;;;;;;;16.78;77.79;93513.13;5072918;28;20032;-58
2022/08/31 00:15:40;;;;;;;6.28;5.40;;;;;;;16.90;77.89;93513.97;5073117;28;20028;-58
2022/08/31 00:18:05;;;;;;;8.88;4.57;;;;;;;16.91;77.65;93509.88;5073643;28;20413;-58
2022/08/31 00:20:32;;;;;;;6.72;5.22;;;;;;;16.86;77.97;93506.06;5072701;28;20029;-57
2022/08/31 00:22:57;;;;;;;6.90;5.43;;;;;;;16.85;77.48;93499.00;5071870;28;20051;-57
2022/08/31 00:25:23;;;;;;;5.47;4.53;;;;;;;16.78;77.52;93504.75;5072157;28;20259;-57
2022/08/31 00:27:48;;;;;;;7.47;5.60;;;;;;;16.75;77.26;93501.09;5072499;28;20082;-57
2022/08/31 00:30:14;;;;;;;8.95;5.65;;;;;;;16.84;76.89;93500.34;5072596;28;20016;-51
2022/08/31 00:32:39;;;;;;;7.80;5.35;;;;;;;16.78;77.58;93493.59;5072491;28;20033;-51
2022/08/31 00:35:06;;;;;;;7.78;5.18;;;;;;;16.78;77.64;93493.59;5072773;28;20039;-50
2022/08/31 00:37:31;;;;;;;5.80;5.15;;;;;;;16.78;77.40;93499.19;5072398;28;20597;-50
2022/08/31 00:39:57;;;;;;;7.78;5.20;;;;;;;16.65;77.67;93500.38;5072675;28;20099;-48
2022/08/31 00:42:22;;;;;;;6.72;5.10;;;;;;;16.60;77.85;93493.03;5072699;28;20409;-51
2022/08/31 00:44:48;;;;;;;5.50;4.80;;;;;;;16.51;78.18;93486.13;5072248;28;20247;-51
2022/08/31 00:47:14;;;;;;;5.80;4.85;;;;;;;16.41;78.20;93476.28;5091521;28;20080;-52
2022/08/31 00:49:40;;;;;;;6.68;5.32;;;;;;;16.61;77.92;93511.22;5089187;28;20033;-50
2022/08/31 00:52:12;;;;;;;5.97;4.80;;;;;;;16.62;77.61;93507.84;5072400;28;20478;-52
2022/08/31 00:54:45;;;;;;;6.78;5.00;;;;;;;16.58;77.56;93506.81;5070937;28;20063;-49
2022/08/31 00:57:12;;;;;;;8.73;5.22;;;;;;;16.46;77.98;93511.47;5073365;28;20033;-52
2022/08/31 00:59:39;;;;;;;6.50;5.03;;;;;;;16.54;77.74;93504.47;5082762;28;20181;-55
2022/08/31 01:02:05;;;;;;;6.78;5.40;;;;;;;16.36;78.31;93485.66;5081345;28;20041;-53
2022/08/31 01:04:31;;;;;;;6.68;5.55;;;;;;;16.35;78.89;93500.94;5072220;28;20103;-54
2022/08/31 01:06:57;;;;;;;7.82;5.25;;;;;;;16.07;79.96;93477.25;5070676;28;20135;-56
2022/08/31 01:09:26;;;;;;;6.38;5.57;;;;;;;16.30;79.88;93502.69;5071413;28;20525;-52
2022/08/31 01:11:51;;;;;;;7.33;6.00;;;;;;;16.33;79.72;93504.28;5071831;28;20241;-54
2022/08/31 01:14:17;;;;;;;9.55;4.82;;;;;;;16.29;79.02;93503.25;5071760;28;20468;-55
2022/08/31 01:16:46;;;;;;;7.47;5.60;;;;;;;16.22;78.89;93485.34;5070808;28;20032;-51
2022/08/31 01:19:23;;;;;;;6.72;5.20;;;;;;;16.34;79.18;93488.31;5070727;28;20465;-52
2022/08/31 01:21:59;;;;;;;6.68;5.15;;;;;;;16.26;78.65;93476.56;5071541;28;20032;-53
2022/08/31 01:24:25;;;;;;;7.72;5.40;;;;;;;16.22;78.57;93490.91;5070427;28;20569;-54
2022/08/31 01:26:51;;;;;;;7.22;5.18;;;;;;;16.32;78.32;93497.25;5070549;28;20032;-54
2022/08/31 01:29:17;;;;;;;9.63;5.97;;;;;;;16.36;77.82;93500.34;5071387;28;20503;-53
2022/08/31 01:31:45;;;;;;;6.43;4.78;;;;;;;16.34;77.89;93500.19;5071662;28;20024;-54
2022/08/31 01:34:10;;;;;;;6.63;5.18;;;;;;;16.30;78.00;93502.69;5071329;28;20036;-53
2022/08/31 01:36:37;;;;;;;7.72;4.93;;;;;;;16.30;78.36;93496.38;5071636;28;20028;-52
2022/08/31 01:39:04;;;;;;;6.75;5.55;;;;;;;16.37;78.20;93489.94;5071225;28;20024;-53
2022/08/31 01:41:30;;;;;;;7.97;5.43;;;;;;;16.23;78.95;93497.97;5071508;28;20058;-51
2022/08/31 01:43:56;;;;;;;5.70;4.70;;;;;;;16.29;78.64;93494.88;5071172;28;20028;-54
2022/08/31 01:46:22;;;;;;;7.68;5.95;;;;;;;16.30;78.12;93493.56;5070743;28;20033;-54
2022/08/31 01:48:47;;;;;;;6.47;5.80;;;;;;;16.25;78.02;93475.84;5069976;28;20021;-56
2022/08/31 01:51:16;;;;;;;7.85;5.53;;;;;;;16.19;78.23;93494.16;5087704;28;20554;-55
2022/08/31 01:53:43;;;;;;;6.97;5.55;;;;;;;16.20;78.19;93490.06;5089998;28;20497;-52
2022/08/31 01:56:24;;;;;;;6.93;5.63;;;;;;;16.18;78.25;93495.47;5091436;28;20444;-56
2022/08/31 01:58:50;;;;;;;6.95;5.32;;;;;;;16.21;77.68;93495.03;5070793;28;20067;-54
2022/08/31 02:01:16;;;;;;;5.45;4.30;;;;;;;16.19;77.68;93494.16;5071157;28;20025;-53
2022/08/31 02:03:41;;;;;;;9.25;5.68;;;;;;;16.15;77.18;93505.75;5086733;28;20020;-49
2022/08/31 02:06:08;;;;;;;6.35;4.60;;;;;;;16.18;77.08;93501.75;5070709;28;20025;-49
2022/08/31 02:08:34;;;;;;;8.25;5.90;;;;;;;16.01;78.10;93501.88;5070609;28;20119;-50
2022/08/31 02:10:59;;;;;;;8.38;5.45;;;;;;;16.01;77.92;93504.66;5070613;28;20127;-48
2022/08/31 02:13:25;;;;;;;9.35;6.28;;;;;;;16.03;77.87;93502.03;5070925;28;20078;-49
2022/08/31 02:15:50;;;;;;;7.65;5.68;;;;;;;16.07;77.39;93493.97;5070773;28;20035;-49
2022/08/31 02:18:16;;;;;;;7.38;6.03;;;;;;;16.04;77.89;93495.16;5070612;28;20031;-49
2022/08/31 02:20:41;;;;;;;7.53;5.53;;;;;;;15.99;77.80;93489.84;5069842;28;20078;-49
2022/08/31 02:23:06;;;;;;;9.00;5.90;;;;;;;15.78;78.15;93490.41;5070449;28;20028;-57
2022/08/31 02:25:32;;;;;;;7.43;5.95;;;;;;;15.98;76.94;93480.06;5076806;28;20036;-48
2022/08/31 02:27:57;;;;;;;5.82;4.63;;;;;;;15.98;76.32;93488.41;5075380;28;20024;-48
2022/08/31 02:30:23;;;;;;;5.95;4.80;;;;;;;15.89;76.65;93496.16;5071254;28;20063;-52
2022/08/31 02:32:48;;;;;;;10.52;5.80;;;;;;;15.73;77.15;93494.19;5090496;28;20115;-51
2022/08/31 02:35:14;;;;;;;6.60;5.13;;;;;;;15.67;77.09;93474.25;5090825;28;20085;-53
2022/08/31 02:37:39;;;;;;;7.40;5.40;;;;;;;15.82;77.11;93494.22;5090816;28;20107;-50
2022/08/31 02:40:07;;;;;;;6.82;5.32;;;;;;;15.76;77.24;93498.59;5090755;28;20024;-53
2022/08/31 02:42:33;;;;;;;5.53;4.50;;;;;;;15.70;77.13;93500.94;5090479;28;20081;-53
2022/08/31 02:44:59;;;;;;;6.50;5.03;;;;;;;15.67;77.17;93496.53;5090207;28;20032;-51
2022/08/31 02:47:26;;;;;;;6.15;5.28;;;;;;;15.64;76.74;93498.41;5090396;28;20052;-53
2022/08/31 02:49:52;;;;;;;5.22;4.72;;;;;;;15.67;76.83;93502.84;5085217;28;20048;-53
2022/08/31 02:52:18;;;;;;;6.03;5.43;;;;;;;15.60;76.82;93502.94;5070155;28;20533;-49
2022/08/31 02:54:43;;;;;;;8.70;5.28;;;;;;;15.63;76.72;93496.22;5089251;28;20031;-55
2022/08/31 02:57:09;;;;;;;6.55;4.78;;;;;;;15.58;76.86;93494.44;5090256;28;20031;-56
2022/08/31 02:59:34;;;;;;;7.15;4.93;;;;;;;15.60;76.69;93489.03;5090272;28;20024;-49
2022/08/31 03:02:00;;;;;;;7.00;4.43;;;;;;;15.63;77.00;93496.22;5090247;28;20077;-48
2022/08/31 03:04:25;;;;;;;5.78;5.13;;;;;;;15.54;77.69;93492.09;5090537;28;20040;-49
2022/08/31 03:06:51;;;;;;;7.53;5.53;;;;;;;15.54;77.41;93494.88;5090248;28;20032;-46
2022/08/31 03:09:16;;;;;;;6.70;4.93;;;;;;;15.57;76.88;93504.81;5073331;28;20029;-46
2022/08/31 03:11:42;;;;;;;7.72;5.65;;;;;;;15.59;76.89;93498.69;5069661;28;20024;-46
2022/08/31 03:14:07;;;;;;;9.13;5.38;;;;;;;15.57;76.79;93498.56;5069153;28;20044;-47
2022/08/31 03:16:33;;;;;;;7.10;5.28;;;;;;;15.49;76.66;93484.00;5069865;28;20028;-47
2022/08/31 03:18:58;;;;;;;5.43;4.90;;;;;;;15.31;78.28;93486.09;5069933;28;20020;-46
2022/08/31 03:33:06;;;;;;;7.65;6.65;;;;;;;15.87;74.50;93498.06;5128451;27;20623;-48
2022/08/31 03:35:32;;;;;;;8.63;6.85;;;;;;;15.74;74.79;93498.47;5128396;27;20042;-48
2022/08/31 03:37:57;;;;;;;6.03;5.32;;;;;;;15.73;75.20;93502.53;5128599;27;20015;-46
2022/08/31 03:40:23;;;;;;;6.78;5.20;;;;;;;15.63;75.17;93499.75;5128064;27;20476;-48
2022/08/31 03:42:49;;;;;;;5.70;4.35;;;;;;;15.57;74.95;93495.78;5123469;27;20431;-48
2022/08/31 03:45:14;;;;;;;6.13;4.97;;;;;;;15.51;74.95;93495.28;5126340;28;20035;-47
2022/08/31 03:47:40;;;;;;;6.15;5.10;;;;;;;15.45;75.57;93501.13;5128224;27;20026;-60
2022/08/31 03:50:09;;;;;;;6.18;4.93;;;;;;;15.36;75.53;93501.06;5128465;27;20613;-60
2022/08/31 03:52:34;;;;;;;7.03;5.40;;;;;;;15.20;76.34;93511.69;5128440;27;20502;-60
2022/08/31 03:55:01;;;;;;;8.18;6.03;;;;;;;15.12;76.99;93509.00;5128314;27;20031;-60
2022/08/31 03:57:26;;;;;;;7.70;5.80;;;;;;;15.22;76.59;93502.75;5108176;27;20062;-60
2022/08/31 03:59:54;;;;;;;7.20;6.07;;;;;;;15.28;76.37;93501.19;5107444;28;20489;-60
2022/08/31 04:02:20;;;;;;;5.72;5.03;;;;;;;15.19;76.74;93499.81;5107681;28;20098;-59
2022/08/31 04:04:52;;;;;;;6.20;4.88;;;;;;;15.22;76.94;93500.72;5107691;28;20237;-56
2022/08/31 04:07:19;;;;;;;6.88;5.32;;;;;;;15.11;77.20;93493.63;5118439;28;20023;-60
2022/08/31 04:09:45;;;;;;;6.35;5.53;;;;;;;15.23;76.97;93490.31;5107273;27;20063;-57
2022/08/31 04:12:10;;;;;;;11.65;6.72;;;;;;;15.27;76.01;93493.41;5107059;28;20077;-55
2022/08/31 04:14:36;;;;;;;5.72;5.15;;;;;;;15.22;76.34;93495.16;5107165;28;20027;-53
2022/08/31 04:17:01;;;;;;;6.88;5.75;;;;;;;15.23;76.37;93498.63;5107206;28;20023;-56
2022/08/31 04:19:27;;;;;;;6.72;6.07;;;;;;;15.12;77.00;93497.88;5107034;28;20015;-57
2022/08/31 04:21:54;;;;;;;8.07;5.70;;;;;;;15.13;77.27;93499.34;5107188;28;20030;-57
2022/08/31 04:24:20;;;;;;;7.78;6.40;;;;;;;15.09;77.29;93481.63;5106864;28;20412;-53
2022/08/31 04:26:46;;;;;;;8.15;5.70;;;;;;;15.26;76.41;93500.28;5106093;28;20020;-54
2022/08/31 04:29:11;;;;;;;7.85;6.13;;;;;;;15.30;76.13;93495.03;5107012;28;20023;-54
2022/08/31 04:31:37;;;;;;;7.53;5.97;;;;;;;15.30;76.55;93500.59;5106195;28;20596;-56
2022/08/31 04:34:04;;;;;;;7.63;5.47;;;;;;;15.15;77.16;93493.94;5093481;28;20161;-56
2022/08/31 04:36:30;;;;;;;6.00;5.30;;;;;;;15.24;76.67;93494.56;5092146;28;20102;-52
2022/08/31 04:38:57;;;;;;;5.82;5.25;;;;;;;15.33;76.44;93491.84;5113868;28;20397;-54
2022/08/31 04:41:25;;;;;;;7.35;5.63;;;;;;;15.34;76.87;93495.34;5107040;28;20102;-52
2022/08/31 04:43:52;;;;;;;5.90;5.28;;;;;;;15.42;76.85;93491.13;5107575;28;20153;-50
2022/08/31 04:46:18;;;;;;;6.57;4.78;;;;;;;15.41;77.37;93497.28;5113290;28;20018;-52
2022/08/31 04:48:44;;;;;;;5.30;4.80;;;;;;;15.48;77.77;93499.25;5113620;28;20102;-53
2022/08/31 04:51:15;;;;;;;7.25;5.70;;;;;;;15.60;77.95;93498.13;5113163;28;20119;-51
2022/08/31 04:53:42;;;;;;;7.78;5.43;;;;;;;15.66;77.21;93500.59;5113225;28;20496;-56
2022/08/31 04:56:13;;;;;;;6.35;5.50;;;;;;;15.71;77.42;93485.69;5101781;28;20032;-53
2022/08/31 04:58:44;;;;;;;6.85;5.80;;;;;;;15.87;77.25;93486.91;5113121;28;20023;-50
2022/08/31 05:01:11;;;;;;;7.43;6.10;;;;;;;15.87;76.63;93493.19;5109895;28;20015;-51
2022/08/31 05:03:37;;;;;;;9.48;5.88;;;;;;;15.99;75.69;93495.44;5113294;28;20031;-56
2022/08/31 05:06:03;;;;;;;10.30;7.53;;;;;;;16.02;76.07;93491.50;5113266;28;20488;-57
2022/08/31 05:08:29;;;;;;;11.45;7.72;;;;;;;15.99;76.51;93485.03;5113271;28;20111;-57
2022/08/31 05:10:55;;;;;;;37.65;22.05;;;;;;;16.01;76.62;93490.00;5098968;28;20020;-52
2022/08/31 05:13:21;;;;;;;43.35;24.50;;;;;;;16.08;76.54;93484.31;5089103;28;20035;-54
2022/08/31 05:15:47;;;;;;;40.40;21.67;;;;;;;16.09;76.42;93482.28;5090016;28;20420;-59
2022/08/31 05:18:12;;;;;;;47.47;25.80;;;;;;;16.19;75.90;93478.19;5090199;28;20024;-57
2022/08/31 05:20:39;;;;;;;43.05;22.88;;;;;;;16.25;75.63;93484.19;5092958;28;20591;-57
2022/08/31 05:23:04;;;;;;;39.60;22.83;;;;;;;16.23;76.25;93472.91;5106274;28;20043;-57
2022/08/31 05:25:30;;;;;;;45.95;23.85;;;;;;;16.18;76.55;93478.75;5110349;28;20466;-57
2022/08/31 05:27:56;;;;;;;41.60;23.23;;;;;;;16.25;76.40;93475.84;5109993;28;20042;-56
2022/08/31 05:30:22;;;;;;;35.30;19.95;;;;;;;16.16;77.16;93470.97;5109753;28;20080;-57
2022/08/31 05:32:47;;;;;;;23.95;14.95;;;;;;;16.17;77.29;93464.09;5095961;28;20083;-58
2022/08/31 05:35:13;;;;;;;28.50;15.85;;;;;;;16.19;77.46;93467.03;5089363;28;20036;-58
2022/08/31 05:37:39;;;;;;;16.10;10.88;;;;;;;16.23;77.52;93467.31;5088814;28;20020;-58
2022/08/31 05:40:07;;;;;;;17.50;9.32;;;;;;;16.15;78.04;93452.06;5109516;28;20080;-57
2022/08/31 05:42:32;;;;;;;14.68;10.15;;;;;;;16.32;78.32;93463.81;5101009;28;20023;-59
2022/08/31 05:44:58;;;;;;;17.23;11.85;;;;;;;16.33;78.19;93459.69;5104534;28;20377;-58
2022/08/31 05:47:24;;;;;;;16.48;10.65;;;;;;;16.49;78.42;93462.94;5110308;28;20045;-58
2022/08/31 05:49:49;;;;;;;25.25;13.95;;;;;;;16.57;77.53;93472.63;5109792;28;20050;-58
2022/08/31 05:52:15;;;;;;;27.25;17.60;;;;;;;16.62;77.67;93465.28;5110057;28;20019;-58
2022/08/31 05:54:40;;;;;;;21.38;14.55;;;;;;;16.64;78.12;93459.88;5109623;28;20016;-58
2022/08/31 05:57:06;;;;;;;31.38;20.35;;;;;;;16.72;77.65;93456.94;5109739;28;20034;-58
2022/08/31 05:59:31;;;;;;;41.75;28.20;;;;;;;16.74;78.44;93459.88;5109426;28;20442;-58
2022/08/31 06:01:57;;;;;;;41.70;23.63;;;;;;;16.79;79.14;93453.25;5108087;28;20038;-58
2022/08/31 06:04:23;;;;;;;42.35;27.70;;;;;;;16.87;79.79;93448.97;5109414;28;20115;-58
2022/08/31 06:06:48;;;;;;;41.80;25.20;;;;;;;17.08;79.46;93451.13;5109077;28;20492;-60
2022/08/31 06:09:14;;;;;;;30.25;20.05;;;;;;;17.27;79.47;93454.59;5107743;28;20084;-58
2022/08/31 06:11:41;;;;;;;27.55;18.05;;;;;;;17.37;79.32;93462.91;5106014;28;20030;-55
2022/08/31 06:14:08;;;;;;;21.55;14.13;;;;;;;17.56;78.76;93446.13;5109025;28;20031;-58
2022/08/31 06:16:34;;;;;;;21.85;13.43;;;;;;;17.69;78.85;93451.22;5109978;28;20035;-58
2022/08/31 06:19:03;;;;;;;17.75;11.40;;;;;;;17.86;78.22;93445.41;5106140;28;20458;-57
2022/08/31 06:21:31;;;;;;;17.00;11.30;;;;;;;17.95;78.92;93444.59;5105451;28;20126;-57
2022/08/31 06:23:58;;;;;;;16.38;11.60;;;;;;;18.13;79.13;93442.25;5108777;28;20039;-58
2022/08/31 06:26:25;;;;;;;15.52;9.75;;;;;;;18.35;78.27;93445.78;5107760;28;20036;-57
2022/08/31 06:28:53;;;;;;;16.50;10.30;;;;;;;18.49;78.49;93441.88;5107310;28;20035;-57
2022/08/31 06:31:22;;;;;;;15.45;9.48;;;;;;;18.60;78.92;93452.38;5107119;28;20486;-56
2022/08/31 06:33:48;;;;;;;13.55;9.98;;;;;;;18.70;79.66;93449.50;5106820;28;20023;-57
2022/08/31 06:36:17;;;;;;;11.20;7.97;;;;;;;18.82;78.96;93444.66;5100930;28;20396;-58
2022/08/31 06:38:43;;;;;;;;;;;;;;;18.93;79.00;93432.78;5097948;28;20031;-56
2022/08/31 06:41:11;;;;;;;11.65;6.88;;;;;;;19.06;77.57;93439.88;5101656;28;19923;-56
2022/08/31 06:43:37;;;;;;;12.37;8.63;;;;;;;19.21;77.38;93431.75;5097279;28;20031;-56
2022/08/31 06:46:02;;;;;;;12.30;9.27;;;;;;;19.34;77.33;93442.38;5097635;28;20457;-58
2022/08/31 06:48:28;;;;;;;11.55;8.02;;;;;;;19.48;77.61;93445.31;5101055;28;20111;-56
2022/08/31 06:50:57;;;;;;;10.57;8.13;;;;;;;19.57;77.41;93447.28;5097923;28;20024;-58
2022/08/31 06:53:22;;;;;;;;;;;;;;;19.73;77.08;93447.53;5104380;28;20019;-57
2022/08/31 06:55:47;;;;;;;14.57;8.80;;;;;;;19.85;77.19;93445.44;5108474;28;20007;-57
2022/08/31 06:58:13;;;;;;;9.30;7.03;;;;;;;20.00;76.67;93442.16;5103689;28;20492;-58
2022/08/31 07:00:39;;;;;;;9.00;7.75;;;;;;;20.15;75.85;93438.81;5103708;28;20574;-58
2022/08/31 07:03:21;;;;;;;11.80;7.75;;;;;;;20.50;75.13;93433.16;5101842;28;20035;-57
2022/08/31 07:05:49;;;;;;;9.57;6.50;;;;;;;21.19;71.72;93434.94;5103890;28;20042;-55
2022/08/31 07:08:15;;;;;;;8.65;6.95;;;;;;;22.03;68.78;93438.72;5108371;28;20121;-54
2022/08/31 07:10:41;;;;;;;8.50;6.28;;;;;;;22.88;67.56;93429.66;5106042;28;20113;-59
2022/08/31 07:13:06;;;;;;;5.82;4.60;;;;;;;23.71;63.91;93443.47;5095401;28;20028;-59
2022/08/31 07:15:32;;;;;;;7.00;4.80;;;;;;;24.60;61.32;93433.28;5106051;28;20050;-58
2022/08/31 07:17:57;;;;;;;4.57;3.97;;;;;;;25.34;58.25;93433.47;5105669;28;20044;-58
2022/08/31 07:20:23;;;;;;;4.75;4.03;;;;;;;26.05;54.68;93425.56;5103682;28;20092;-60
2022/08/31 07:22:48;;;;;;;5.63;4.55;;;;;;;26.81;52.45;93429.69;5099685;28;20047;-59
2022/08/31 07:25:14;;;;;;;3.95;3.38;;;;;;;27.32;50.74;93423.53;5095416;28;20555;-58
2022/08/31 07:27:39;;;;;;;5.03;3.85;;;;;;;27.56;49.95;93432.84;5085377;28;20723;-58
2022/08/31 07:30:06;;;;;;;6.05;4.13;;;;;;;28.13;48.82;93433.13;5095713;28;20103;-58
2022/08/31 07:32:32;;;;;;;4.80;3.85;;;;;;;28.22;47.75;93431.97;5105866;28;20111;-59
2022/08/31 07:34:57;;;;;;;4.25;3.60;;;;;;;28.24;47.12;93422.81;5105062;28;20115;-59
2022/08/31 07:42:51;;;;;;;6.25;4.38;;;;;;;29.28;45.00;93436.25;5105261;28;20526;-59
2022/08/31 07:45:23;;;;;;;3.40;3.10;;;;;;;29.20;44.77;93405.47;5105162;28;20028;-60
2022/08/31 07:47:52;;;;;;;5.88;4.13;;;;;;;29.65;44.09;93429.28;5103730;28;20028;-60
2022/08/31 07:50:19;;;;;;;5.35;3.10;;;;;;;29.95;43.16;93427.84;5105536;28;20381;-54
2022/08/31 07:52:50;;;;;;;5.30;4.18;;;;;;;29.84;42.74;93426.16;5106014;28;20019;-55
2022/08/31 07:55:16;;;;;;;4.72;3.75;;;;;;;30.05;41.48;93426.63;5106303;28;20076;-56
2022/08/31 07:57:42;;;;;;;4.57;4.15;;;;;;;30.18;42.59;93419.78;5106709;28;20091;-59
2022/08/31 08:00:09;;;;;;;4.82;3.75;;;;;;;30.21;42.36;93429.81;5106256;28;20065;-55
2022/08/31 08:02:38;;;;;;;4.03;3.67;;;;;;;30.49;41.73;93427.56;5105494;28;20127;-55
2022/08/31 08:05:09;;;;;;;4.07;3.63;;;;;;;30.54;41.12;93423.34;5107517;28;20109;-61
2022/08/31 08:07:36;;;;;;;4.30;3.75;;;;;;;30.37;40.98;93425.19;5108343;28;20077;-62
2022/08/31 08:10:06;;;;;;;3.95;3.55;;;;;;;30.26;41.80;93422.78;5111357;27;20027;-59
2022/08/31 08:12:35;;;;;;;4.10;3.65;;;;;;;30.47;40.27;93418.97;5110380;28;20167;-59
2022/08/31 08:15:03;;;;;;;4.10;3.38;;;;;;;30.49;41.01;93411.16;5111386;28;20024;-59
2022/08/31 08:17:28;;;;;;;;;;;;;;;30.38;42.14;93420.22;5112081;28;20028;-59
2022/08/31 08:19:54;;;;;;;3.90;3.20;;;;;;;30.49;40.89;93416.16;5095481;28;19988;-58
2022/08/31 08:22:19;;;;;;;3.90;3.50;;;;;;;30.75;41.34;93415.91;5091373;28;20016;-57
2022/08/31 08:24:46;;;;;;;3.80;3.08;;;;;;;30.61;40.77;93422.81;5091228;28;20115;-59
2022/08/31 08:27:12;;;;;;;5.03;4.25;;;;;;;30.56;40.82;93417.69;5091005;28;20048;-58
2022/08/31 08:29:39;;;;;;;3.60;3.28;;;;;;;30.65;40.74;93416.44;5098139;28;20023;-61
2022/08/31 08:32:04;;;;;;;4.30;3.53;;;;;;;30.81;39.51;93421.72;5110873;28;20160;-59
2022/08/31 08:34:30;;;;;;;4.20;3.80;;;;;;;31.34;39.34;93415.53;5111013;28;20124;-60
2022/08/31 08:36:55;;;;;;;3.40;3.10;;;;;;;31.35;38.54;93420.56;5110786;28;20530;-59
2022/08/31 08:39:21;;;;;;;4.32;3.92;;;;;;;31.52;39.03;93407.28;5111051;28;20032;-57
2022/08/31 08:41:47;;;;;;;5.78;4.70;;;;;;;31.63;38.87;93423.16;5111000;28;20076;-59
2022/08/31 08:44:15;;;;;;;5.03;3.90;;;;;;;31.90;38.66;93416.41;5109959;28;20035;-59
2022/08/31 08:47:21;;;;;;;5.50;4.28;;;;;;;31.98;37.81;93415.84;5110927;28;20031;-57
2022/08/31 08:49:55;;;;;;;4.38;3.45;;;;;;;32.36;38.08;93399.16;5107919;28;20428;-53
2022/08/31 08:52:30;;;;;;;4.50;4.05;;;;;;;32.79;36.30;93406.81;5110830;28;20023;-53
2022/08/31 08:55:06;;;;;;;5.47;3.83;;;;;;;32.94;36.29;93395.53;5107194;28;20032;-57
2022/08/31 08:57:34;;;;;;;8.27;4.50;;;;;;;33.14;35.08;93401.44;5108082;28;20019;-57
2022/08/31 09:00:06;;;;;;;3.85;3.50;;;;;;;32.47;37.08;93397.91;5110750;27;20128;-57
2022/08/31 09:02:39;;;;;;;4.75;3.58;;;;;;;32.17;38.57;93394.66;5110316;28;20107;-55
2022/08/31 09:05:04;;;;;;;3.70;3.40;;;;;;;32.32;37.07;93407.69;5109243;28;20475;-56
2022/08/31 09:08:22;;;;;;;3.28;2.97;;;;;;;32.61;36.35;93397.34;5107412;28;20114;-55
2022/08/31 09:11:16;;;;;;;5.05;3.33;;;;;;;32.77;37.51;93389.66;5046944;28;20539;-56
2022/08/31 09:14:04;;;;;;;4.03;3.25;;;;;;;33.18;34.84;93387.19;5066671;28;20071;-52
2022/08/31 09:16:47;;;;;;;3.67;3.35;;;;;;;32.86;36.17;93396.16;5086409;28;20056;-54
2022/08/31 09:19:16;;;;;;;3.50;3.13;;;;;;;33.15;34.45;93385.72;5090916;28;20030;-55
2022/08/31 09:21:50;;;;;;;2.83;2.40;;;;;;;33.21;33.91;93380.06;5090290;28;20106;-58
2022/08/31 09:24:19;;;;;;;3.33;2.60;;;;;;;32.99;32.62;93382.69;5094538;28;20055;-58
2022/08/31 09:27:18;;;;;;;3.22;2.92;;;;;;;32.99;34.21;93366.28;5112358;28;20023;-51
2022/08/31 09:29:53;;;;;;;3.65;2.92;;;;;;;32.90;33.73;93356.88;5100991;28;20039;-52
2022/08/31 09:32:25;;;;;;;2.88;2.67;;;;;;;32.71;33.63;93363.13;5091086;28;20105;-54
2022/08/31 09:35:00;;;;;;;2.97;2.60;;;;;;;33.42;33.39;93348.03;5090086;28;20016;-58
2022/08/31 09:37:43;;;;;;;3.45;3.13;;;;;;;33.89;32.03;93363.38;5090258;28;20104;-55
2022/08/31 09:40:17;;;;;;;4.57;2.55;;;;;;;34.40;31.73;93349.28;5090061;28;20566;-53
2022/08/31 09:42:46;;;;;;;4.47;2.85;;;;;;;34.62;31.03;93349.38;5090649;28;20105;-68
2022/08/31 09:45:28;;;;;;;4.93;3.13;;;;;;;34.55;29.18;93336.44;5102126;28;20489;-56
2022/08/31 09:47:59;;;;;;;2.53;2.33;;;;;;;34.22;31.11;93352.81;5100446;28;20031;-53
2022/08/31 09:50:44;;;;;;;2.85;2.47;;;;;;;34.63;31.43;93342.91;5098249;28;20035;-56
2022/08/31 09:56:14;;;;;;;4.32;2.70;;;;;;;34.24;30.63;93316.28;5100431;28;20042;-61
2022/08/31 09:58:51;;;;;;;2.75;2.45;;;;;;;34.70;31.11;93350.13;5098419;28;20420;-58
2022/08/31 10:01:42;;;;;;;3.00;2.47;;;;;;;34.97;28.89;93343.00;5099151;28;20528;-62
2022/08/31 10:04:15;;;;;;;3.13;2.83;;;;;;;34.87;29.09;93342.28;5097496;28;20124;-55
2022/08/31 10:06:54;;;;;;;3.67;3.33;;;;;;;34.90;28.74;93346.56;5096738;28;20035;-60
2022/08/31 10:09:45;;;;;;;3.70;2.72;;;;;;;34.85;29.92;93340.09;5098908;28;20495;-55
2022/08/31 10:12:22;;;;;;;3.05;2.75;;;;;;;35.20;28.23;93343.72;5099785;28;20028;-58
2022/08/31 10:14:52;;;;;;;2.65;2.45;;;;;;;35.39;27.59;93341.59;5099977;28;20144;-58
2022/08/31 10:17:31;;;;;;;3.08;2.65;;;;;;;35.49;28.83;93330.13;5103357;28;20427;-59
2022/08/31 10:20:04;;;;;;;3.35;2.92;;;;;;;34.26;30.40;93322.00;5096800;28;20054;-57
2022/08/31 10:22:40;;;;;;;3.35;2.95;;;;;;;33.81;31.63;93316.81;5099658;28;20493;-54
2022/08/31 10:25:27;;;;;;;3.42;3.13;;;;;;;33.14;32.45;93321.34;5098492;28;20028;-52
2022/08/31 10:27:58;;;;;;;3.15;2.67;;;;;;;32.38;33.45;93313.47;5105654;28;20035;-53
2022/08/31 10:30:38;;;;;;;3.88;3.03;;;;;;;31.57;33.16;93308.91;5092673;28;20027;-55
2022/08/31 10:33:13;;;;;;;8.23;3.63;;;;;;;30.93;35.45;93302.22;5087345;28;20047;-53
2022/08/31 10:35:53;;;;;;;3.53;3.20;;;;;;;31.37;36.29;93309.31;5087574;28;20100;-54
2022/08/31 10:38:42;;;;;;;4.30;3.67;;;;;;;32.40;33.98;93309.91;5095563;28;20118;-51
2022/08/31 10:41:16;;;;;;;;;;;;;;;33.05;31.77;93306.25;5087780;28;20036;-57
2022/08/31 10:44:00;;;;;;;4.85;2.85;;;;;;;33.25;31.42;93297.09;5088666;28;19966;-54
2022/08/31 10:46:27;;;;;;;5.20;3.40;;;;;;;32.99;32.81;93308.31;5086373;28;20036;-56
2022/08/31 10:48:56;;;;;;;6.35;3.45;;;;;;;32.83;32.19;93283.88;5088748;28;20038;-58
2022/08/31 10:51:30;;;;;;;3.90;3.25;;;;;;;33.08;31.40;93304.13;5088519;28;20036;-61
2022/08/31 10:54:15;;;;;;;3.50;3.20;;;;;;;32.92;32.38;93306.84;5088206;28;20492;-58
2022/08/31 10:56:59;;;;;;;3.10;2.80;;;;;;;32.73;31.95;93320.97;5088166;28;20397;-57
2022/08/31 10:59:39;;;;;;;5.10;4.05;;;;;;;32.64;31.95;93313.75;5087794;28;20197;-60
2022/08/31 11:02:31;;;;;;;4.05;2.83;;;;;;;32.53;32.92;93311.50;5086520;28;20036;-55
2022/08/31 11:05:02;;;;;;;3.70;3.17;;;;;;;32.78;30.62;93302.44;5088487;28;20093;-59
2022/08/31 11:07:40;;;;;;;4.18;3.72;;;;;;;32.58;31.99;93316.56;5098811;28;20062;-60
2022/08/31 11:10:18;;;;;;;3.88;3.58;;;;;;;32.95;33.07;93309.00;5107471;28;20721;-51
2022/08/31 11:12:48;;;;;;;3.20;2.90;;;;;;;33.49;30.56;93302.97;5100695;28;20036;-59
2022/08/31 11:15:21;;;;;;;3.33;2.97;;;;;;;33.88;30.26;93303.94;5100358;28;20024;-57
2022/08/31 11:18:17;;;;;;;3.47;3.17;;;;;;;33.36;30.63;93293.59;5107479;28;20062;-59
2022/08/31 11:34:07;;;;;;;4.50;3.80;;;;;;;29.98;37.34;93283.41;5023206;28;20646;-59
2022/08/31 11:36:48;;;;;;;4.78;3.50;;;;;;;28.94;39.51;93274.06;5023090;28;20036;-55
2022/08/31 11:39:17;;;;;;;4.72;3.90;;;;;;;28.36;41.81;93281.16;5004733;28;20037;-50
2022/08/31 11:41:49;;;;;;;4.50;3.50;;;;;;;28.12;42.68;93292.59;5003966;28;20104;-53
2022/08/31 11:44:38;;;;;;;4.72;4.22;;;;;;;27.70;42.31;93302.75;5019682;28;20041;-57
2022/08/31 11:47:23;;;;;;;;;;;;;;;27.54;42.84;93308.00;5025246;28;20498;-59
2022/08/31 11:49:50;;;;;;;4.93;3.88;;;;;;;27.18;44.84;93316.09;5019620;28;19918;-60
2022/08/31 11:52:28;;;;;;;4.95;3.97;;;;;;;26.77;44.85;93331.13;5004392;28;20018;-65
2022/08/31 11:55:29;;;;;;;4.07;3.67;;;;;;;26.62;46.27;93349.03;5021014;28;20084;-51
2022/08/31 11:58:08;;;;;;;5.18;4.25;;;;;;;26.60;49.03;93368.78;4983486;28;20416;-55
2022/08/31 12:01:01;;;;;;;4.45;4.00;;;;;;;25.71;52.67;93381.19;5017005;28;20042;-63
2022/08/31 12:03:52;;;;;;;7.68;4.32;;;;;;;25.15;58.88;93408.72;5008418;28;20772;-66
2022/08/31 12:06:24;;;;;;;6.13;4.38;;;;;;;24.70;56.85;93411.09;5024027;28;20041;-59
2022/08/31 12:08:53;;;;;;;4.13;3.53;;;;;;;24.35;57.64;93417.41;5024286;28;20040;-61
2022/08/31 12:11:39;;;;;;;;;;;;;;;24.25;58.55;93419.78;5024435;28;20025;-57
2022/08/31 12:14:36;;;;;;;5.28;4.13;;;;;;;24.11;58.84;93433.28;5014221;28;19916;-59
2022/08/31 12:17:18;;;;;;;4.72;3.90;;;;;;;23.95;59.04;93455.81;5015270;28;20025;-60
2022/08/31 12:20:00;;;;;;;7.25;4.18;;;;;;;23.73;59.67;93465.38;5016299;28;20030;-62
2022/08/31 12:25:34;;;;;;;5.45;3.97;;;;;;;23.32;61.60;93476.84;5015230;28;20048;-57